Terminal Aerodrome Forecast
Issued by NWS

Home | Current Version | Previous Version | Text Only | Print | Product List | Glossary On
Versions: 1 2 3 4 5 6 7 8 9 10 11 12
327
FTUS43 KBIS 301135
TAFDIK
TAF
KDIK 301135Z 3012/0112 21005KT P6SM SKC
     FM010100 15007KT P6SM SCT100
     FM010700 18007KT P6SM BKN050
     FM011000 23007KT P6SM OVC050=

USA.gov is the U.S. government's official web portal to all federal, state and local government web resources and services.